sensor_id;sensor_type;location;lat;lon;timestamp;pressure;altitude;pressure_sealevel;temperature;humidity
49813;BME280;35706;52.100;5.056;2023-10-31T09:57:20;100083.16;;;16.58;94.14
49813;BME280;35706;52.100;5.056;2023-10-31T09:58:20;100076.38;;;18.00;89.02
49813;BME280;35706;52.100;5.056;2023-10-31T09:59:21;100081.38;;;17.55;88.76
49813;BME280;35706;52.100;5.056;2023-10-31T10:00:21;100081.28;;;17.28;90.27
49813;BME280;35706;52.100;5.056;2023-10-31T10:01:21;100087.19;;;17.17;90.39
49813;BME280;35706;52.100;5.056;2023-10-31T10:02:22;100071.91;;;17.32;90.33
49813;BME280;35706;52.100;5.056;2023-10-31T10:03:22;100092.06;;;17.75;88.63
49813;BME280;35706;52.100;5.056;2023-10-31T10:04:23;100102.59;;;15.94;97.38
49813;BME280;35706;52.100;5.056;2023-10-31T10:05:24;100099.38;;;15.62;100.00
49813;BME280;35706;52.100;5.056;2023-10-31T10:06:26;100090.56;;;16.69;96.10
49813;BME280;35706;52.100;5.056;2023-10-31T10:07:26;100095.59;;;16.85;92.84
49813;BME280;35706;52.100;5.056;2023-10-31T10:08:27;100100.72;;;16.87;92.67
49813;BME280;35706;52.100;5.056;2023-10-31T10:09:27;100099.44;;;16.26;94.54
49813;BME280;35706;52.100;5.056;2023-10-31T10:10:28;100099.53;;;16.96;93.39
49813;BME280;35706;52.100;5.056;2023-10-31T10:11:29;100095.25;;;16.67;93.66
49813;BME280;35706;52.100;5.056;2023-10-31T10:12:31;100098.84;;;16.59;94.94
49813;BME280;35706;52.100;5.056;2023-10-31T10:13:32;100104.06;;;16.46;94.13
49813;BME280;35706;52.100;5.056;2023-10-31T10:14:32;100106.84;;;16.87;92.74
49813;BME280;35706;52.100;5.056;2023-10-31T10:15:46;100098.44;;;17.25;91.34
49813;BME280;35706;52.100;5.056;2023-10-31T10:16:49;100104.22;;;17.36;90.36
49813;BME280;35706;52.100;5.056;2023-10-31T10:17:52;100108.75;;;17.00;91.76
49813;BME280;35706;52.100;5.056;2023-10-31T10:18:52;100111.41;;;17.00;91.60
49813;BME280;35706;52.100;5.056;2023-10-31T10:20:08;100110.81;;;17.05;90.98
49813;BME280;35706;52.100;5.056;2023-10-31T10:21:09;100117.81;;;16.56;93.49
49813;BME280;35706;52.100;5.056;2023-10-31T10:22:09;100108.72;;;16.94;91.71
49813;BME280;35706;52.100;5.056;2023-10-31T10:23:10;100106.69;;;17.44;89.72
49813;BME280;35706;52.100;5.056;2023-10-31T10:24:11;100115.47;;;17.38;88.83
49813;BME280;35706;52.100;5.056;2023-10-31T10:25:13;100105.81;;;17.30;90.12
49813;BME280;35706;52.100;5.056;2023-10-31T10:26:15;100113.34;;;17.26;89.62
49813;BME280;35706;52.100;5.056;2023-10-31T10:27:19;100109.13;;;17.39;89.87
49813;BME280;35706;52.100;5.056;2023-10-31T10:28:20;100100.88;;;17.20;90.21
49813;BME280;35706;52.100;5.056;2023-10-31T10:29:20;100108.09;;;17.40;90.13
49813;BME280;35706;52.100;5.056;2023-10-31T10:30:20;100111.28;;;17.70;88.44
49813;BME280;35706;52.100;5.056;2023-10-31T10:31:23;100114.28;;;17.54;88.44
49813;BME280;35706;52.100;5.056;2023-10-31T10:32:24;100125.97;;;17.18;88.68
49813;BME280;35706;52.100;5.056;2023-10-31T10:33:24;100123.94;;;17.20;87.12
49813;BME280;35706;52.100;5.056;2023-10-31T10:34:24;100122.25;;;17.05;86.99
49813;BME280;35706;52.100;5.056;2023-10-31T10:35:25;100126.56;;;17.13;86.89
49813;BME280;35706;52.100;5.056;2023-10-31T10:36:25;100117.06;;;16.91;88.37
49813;BME280;35706;52.100;5.056;2023-10-31T10:37:26;100121.22;;;17.00;88.95
49813;BME280;35706;52.100;5.056;2023-10-31T10:38:28;100120.19;;;17.42;87.11
49813;BME280;35706;52.100;5.056;2023-10-31T10:39:32;100124.09;;;17.12;87.76
49813;BME280;35706;52.100;5.056;2023-10-31T10:40:33;100114.59;;;17.30;86.11
49813;BME280;35706;52.100;5.056;2023-10-31T10:41:35;100121.75;;;17.30;86.68
49813;BME280;35706;52.100;5.056;2023-10-31T10:42:44;100120.84;;;17.58;85.81
49813;BME280;35706;52.100;5.056;2023-10-31T10:43:47;100126.03;;;17.31;86.51
49813;BME280;35706;52.100;5.056;2023-10-31T10:44:49;100126.88;;;17.32;86.91
49813;BME280;35706;52.100;5.056;2023-10-31T10:45:54;100124.75;;;17.20;88.28
49813;BME280;35706;52.100;5.056;2023-10-31T10:46:58;100131.56;;;16.95;88.96
49813;BME280;35706;52.100;5.056;2023-10-31T10:48:02;100123.75;;;17.21;86.96
49813;BME280;35706;52.100;5.056;2023-10-31T10:49:06;100129.78;;;17.02;87.88
49813;BME280;35706;52.100;5.056;2023-10-31T10:50:08;100135.78;;;17.17;87.99
49813;BME280;35706;52.100;5.056;2023-10-31T10:51:18;100131.94;;;17.26;87.16
49813;BME280;35706;52.100;5.056;2023-10-31T10:52:24;100131.19;;;16.98;87.59
49813;BME280;35706;52.100;5.056;2023-10-31T10:53:30;100145.22;;;17.26;87.09
49813;BME280;35706;52.100;5.056;2023-10-31T10:54:44;100140.19;;;16.75;87.88
49813;BME280;35706;52.100;5.056;2023-10-31T10:55:46;100132.78;;;16.92;87.53
49813;BME280;35706;52.100;5.056;2023-10-31T10:56:54;100130.09;;;16.85;88.63
49813;BME280;35706;52.100;5.056;2023-10-31T10:58:03;100129.44;;;17.18;87.60
49813;BME280;35706;52.100;5.056;2023-10-31T10:59:29;100119.94;;;17.37;87.15
49813;BME280;35706;52.100;5.056;2023-10-31T11:00:33;100136.03;;;17.29;86.33
49813;BME280;35706;52.100;5.056;2023-10-31T11:01:34;100132.22;;;17.03;85.21
49813;BME280;35706;52.100;5.056;2023-10-31T11:02:39;100127.66;;;16.91;86.25
49813;BME280;35706;52.100;5.056;2023-10-31T11:03:44;100141.09;;;16.82;87.03
49813;BME280;35706;52.100;5.056;2023-10-31T11:04:45;100135.16;;;16.80;87.11
49813;BME280;35706;52.100;5.056;2023-10-31T11:05:46;100136.00;;;16.81;87.69
49813;BME280;35706;52.100;5.056;2023-10-31T11:06:47;100140.09;;;16.83;88.09
49813;BME280;35706;52.100;5.056;2023-10-31T11:07:48;100138.91;;;16.64;88.01
49813;BME280;35706;52.100;5.056;2023-10-31T11:08:49;100140.34;;;16.67;86.65
49813;BME280;35706;52.100;5.056;2023-10-31T11:09:50;100135.53;;;16.77;87.28
49813;BME280;35706;52.100;5.056;2023-10-31T11:10:52;100137.34;;;17.05;86.26
49813;BME280;35706;52.100;5.056;2023-10-31T11:11:54;100139.34;;;16.96;85.91
49813;BME280;35706;52.100;5.056;2023-10-31T11:12:54;100138.31;;;16.97;86.99
49813;BME280;35706;52.100;5.056;2023-10-31T11:13:56;100143.88;;;17.02;86.64
49813;BME280;35706;52.100;5.056;2023-10-31T11:14:58;100144.06;;;17.01;87.42
49813;BME280;35706;52.100;5.056;2023-10-31T11:16:06;100140.69;;;17.20;87.06
49813;BME280;35706;52.100;5.056;2023-10-31T11:17:22;100148.22;;;16.82;88.68
49813;BME280;35706;52.100;5.056;2023-10-31T11:18:25;100147.31;;;16.68;91.05
49813;BME280;35706;52.100;5.056;2023-10-31T11:19:26;100144.25;;;16.71;90.56
49813;BME280;35706;52.100;5.056;2023-10-31T11:20:27;100147.50;;;16.66;90.84
49813;BME280;35706;52.100;5.056;2023-10-31T11:21:29;100142.81;;;16.68;90.94
49813;BME280;35706;52.100;5.056;2023-10-31T11:22:40;100147.31;;;16.68;91.46
49813;BME280;35706;52.100;5.056;2023-10-31T11:23:41;100162.16;;;16.62;91.13
49813;BME280;35706;52.100;5.056;2023-10-31T11:24:41;100150.75;;;16.40;91.48
49813;BME280;35706;52.100;5.056;2023-10-31T11:25:43;100165.50;;;16.21;91.65
49813;BME280;35706;52.100;5.056;2023-10-31T11:26:53;100151.31;;;16.36;91.67
49813;BME280;35706;52.100;5.056;2023-10-31T11:28:10;100144.56;;;16.33;94.01
49813;BME280;35706;52.100;5.056;2023-10-31T11:29:11;100167.03;;;15.94;93.18
49813;BME280;35706;52.100;5.056;2023-10-31T11:30:27;100156.75;;;16.06;94.73
49813;BME280;35706;52.100;5.056;2023-10-31T11:31:27;100152.69;;;16.32;93.28
49813;BME280;35706;52.100;5.056;2023-10-31T11:32:28;100151.91;;;16.59;91.66
49813;BME280;35706;52.100;5.056;2023-10-31T11:33:28;100167.81;;;16.59;91.50
49813;BME280;35706;52.100;5.056;2023-10-31T11:34:30;100148.47;;;16.37;92.03
49813;BME280;35706;52.100;5.056;2023-10-31T11:35:31;100158.03;;;15.59;96.52
49813;BME280;35706;52.100;5.056;2023-10-31T11:36:32;100155.84;;;15.62;96.95
49813;BME280;35706;52.100;5.056;2023-10-31T11:37:33;100161.44;;;15.38;98.53
49813;BME280;35706;52.100;5.056;2023-10-31T11:38:37;100155.56;;;15.57;98.60
49813;BME280;35706;52.100;5.056;2023-10-31T11:39:38;100152.09;;;15.57;98.99
49813;BME280;35706;52.100;5.056;2023-10-31T11:40:59;100156.41;;;15.58;99.19
49813;BME280;35706;52.100;5.056;2023-10-31T11:42:17;100162.25;;;15.38;100.00
49813;BME280;35706;52.100;5.056;2023-10-31T11:43:17;100161.53;;;15.44;100.00
49813;BME280;35706;52.100;5.056;2023-10-31T11:44:17;100159.59;;;15.53;99.69
49813;BME280;35706;52.100;5.056;2023-10-31T11:45:40;100155.84;;;15.77;99.21
49813;BME280;35706;52.100;5.056;2023-10-31T11:46:50;100167.44;;;15.61;99.90
49813;BME280;35706;52.100;5.056;2023-10-31T11:47:52;100172.69;;;15.25;100.00
49813;BME280;35706;52.100;5.056;2023-10-31T11:48:54;100176.13;;;15.55;100.00
49813;BME280;35706;52.100;5.056;2023-10-31T11:49:56;100164.81;;;15.32;100.00
49813;BME280;35706;52.100;5.056;2023-10-31T11:50:57;100165.28;;;15.50;100.00
49813;BME280;35706;52.100;5.056;2023-10-31T11:51:57;100167.09;;;15.50;99.19
49813;BME280;35706;52.100;5.056;2023-10-31T11:53:02;100167.63;;;15.60;98.26
49813;BME280;35706;52.100;5.056;2023-10-31T11:54:06;100172.84;;;15.38;99.37
49813;BME280;35706;52.100;5.056;2023-10-31T11:55:10;100166.75;;;15.23;100.00
49813;BME280;35706;52.100;5.056;2023-10-31T11:56:11;100172.94;;;15.15;100.00
49813;BME280;35706;52.100;5.056;2023-10-31T11:57:26;100172.31;;;15.13;100.00
49813;BME280;35706;52.100;5.056;2023-10-31T11:58:27;100170.66;;;14.97;100.00
49813;BME280;35706;52.100;5.056;2023-10-31T11:59:36;100164.03;;;15.16;100.00
49813;BME280;35706;52.100;5.056;2023-10-31T12:00:36;100171.16;;;15.16;100.00
49813;BME280;35706;52.100;5.056;2023-10-31T12:01:46;100172.22;;;15.36;100.00
49813;BME280;35706;52.100;5.056;2023-10-31T12:03:07;100171.06;;;15.39;100.00
49813;BME280;35706;52.100;5.056;2023-10-31T12:04:07;100166.63;;;15.61;100.00
49813;BME280;35706;52.100;5.056;2023-10-31T12:05:12;100167.56;;;15.38;100.00
49813;BME280;35706;52.100;5.056;2023-10-31T12:06:14;100174.59;;;15.31;100.00
49813;BME280;35706;52.100;5.056;2023-10-31T12:07:15;100180.38;;;15.20;100.00
49813;BME280;35706;52.100;5.056;2023-10-31T12:08:15;100170.84;;;15.25;100.00
49813;BME280;35706;52.100;5.056;2023-10-31T12:09:15;100175.69;;;14.92;100.00
49813;BME280;35706;52.100;5.056;2023-10-31T12:10:27;100170.22;;;15.09;100.00
49813;BME280;35706;52.100;5.056;2023-10-31T12:11:30;100182.38;;;15.18;100.00
49813;BME280;35706;52.100;5.056;2023-10-31T12:12:31;100178.59;;;15.57;100.00
49813;BME280;35706;52.100;5.056;2023-10-31T12:13:33;100177.59;;;15.58;100.00
49813;BME280;35706;52.100;5.056;2023-10-31T12:14:34;100174.59;;;15.16;100.00
49813;BME280;35706;52.100;5.056;2023-10-31T12:15:34;100180.16;;;15.06;100.00
49813;BME280;35706;52.100;5.056;2023-10-31T12:16:34;100178.13;;;14.94;100.00
49813;BME280;35706;52.100;5.056;2023-10-31T12:17:35;100189.13;;;15.05;100.00
49813;BME280;35706;52.100;5.056;2023-10-31T12:18:36;100191.84;;;15.27;100.00
49813;BME280;35706;52.100;5.056;2023-10-31T12:19:39;100205.81;;;15.06;100.00
49813;BME280;35706;52.100;5.056;2023-10-31T12:20:49;100193.03;;;15.10;100.00
49813;BME280;35706;52.100;5.056;2023-10-31T12:21:49;100189.44;;;14.88;100.00
49813;BME280;35706;52.100;5.056;2023-10-31T12:23:01;100186.81;;;15.02;100.00
49813;BME280;35706;52.100;5.056;2023-10-31T12:24:05;100189.66;;;14.86;100.00
49813;BME280;35706;52.100;5.056;2023-10-31T12:25:07;100190.38;;;14.95;100.00
49813;BME280;35706;52.100;5.056;2023-10-31T12:26:08;100193.47;;;14.98;100.00
49813;BME280;35706;52.100;5.056;2023-10-31T12:27:10;100189.22;;;15.12;100.00
49813;BME280;35706;52.100;5.056;2023-10-31T12:28:16;100193.47;;;15.43;100.00
49813;BME280;35706;52.100;5.056;2023-10-31T12:29:21;100194.50;;;15.42;100.00
49813;BME280;35706;52.100;5.056;2023-10-31T12:30:21;100198.91;;;15.20;100.00
49813;BME280;35706;52.100;5.056;2023-10-31T12:31:22;100193.69;;;14.97;100.00
49813;BME280;35706;52.100;5.056;2023-10-31T12:32:22;100192.97;;;15.03;100.00
49813;BME280;35706;52.100;5.056;2023-10-31T12:33:25;100195.53;;;15.41;100.00
49813;BME280;35706;52.100;5.056;2023-10-31T12:34:26;100199.97;;;15.25;100.00
49813;BME280;35706;52.100;5.056;2023-10-31T12:35:26;100203.81;;;15.08;100.00
49813;BME280;35706;52.100;5.056;2023-10-31T12:36:27;100197.16;;;15.42;100.00
49813;BME280;35706;52.100;5.056;2023-10-31T12:37:28;100206.09;;;15.71;100.00
49813;BME280;35706;52.100;5.056;2023-10-31T12:38:29;100193.94;;;15.76;100.00
49813;BME280;35706;52.100;5.056;2023-10-31T12:39:30;100214.97;;;15.33;100.00
49813;BME280;35706;52.100;5.056;2023-10-31T12:40:31;100205.81;;;15.21;100.00
49813;BME280;35706;52.100;5.056;2023-10-31T12:41:32;100205.75;;;15.44;100.00
49813;BME280;35706;52.100;5.056;2023-10-31T12:42:33;100205.81;;;15.36;98.92
49813;BME280;35706;52.100;5.056;2023-10-31T12:43:34;100205.81;;;15.51;98.88
49813;BME280;35706;52.100;5.056;2023-10-31T12:44:35;100211.75;;;15.23;98.94
49813;BME280;35706;52.100;5.056;2023-10-31T12:45:35;100202.84;;;15.39;98.42
49813;BME280;35706;52.100;5.056;2023-10-31T12:46:39;100203.16;;;15.51;98.24
49813;BME280;35706;52.100;5.056;2023-10-31T12:47:40;100200.34;;;15.67;98.02
49813;BME280;35706;52.100;5.056;2023-10-31T12:48:41;100210.75;;;15.68;96.95
49813;BME280;35706;52.100;5.056;2023-10-31T12:49:41;100210.13;;;15.52;97.20
49813;BME280;35706;52.100;5.056;2023-10-31T12:50:41;100198.34;;;15.39;97.82
49813;BME280;35706;52.100;5.056;2023-10-31T12:51:55;100203.97;;;15.51;97.73
49813;BME280;35706;52.100;5.056;2023-10-31T12:52:57;100202.91;;;15.16;97.92
49813;BME280;35706;52.100;5.056;2023-10-31T12:53:57;100208.66;;;15.19;98.06
49813;BME280;35706;52.100;5.056;2023-10-31T12:54:58;100193.78;;;15.33;97.07
49813;BME280;35706;52.100;5.056;2023-10-31T12:55:58;100205.66;;;15.37;96.88
49813;BME280;35706;52.100;5.056;2023-10-31T12:57:02;100196.78;;;15.45;95.59
49813;BME280;35706;52.100;5.056;2023-10-31T12:58:04;100208.84;;;15.47;95.56
49813;BME280;35706;52.100;5.056;2023-10-31T12:59:09;100208.00;;;15.47;95.59
49813;BME280;35706;52.100;5.056;2023-10-31T13:00:10;100201.16;;;14.93;97.51
49813;BME280;35706;52.100;5.056;2023-10-31T13:01:12;100200.00;;;14.73;98.58
49813;BME280;35706;52.100;5.056;2023-10-31T13:02:16;100199.88;;;15.19;97.39
49813;BME280;35706;52.100;5.056;2023-10-31T13:03:17;100197.34;;;15.25;97.05
49813;BME280;35706;52.100;5.056;2023-10-31T13:04:30;100208.00;;;15.32;96.72
49813;BME280;35706;52.100;5.056;2023-10-31T13:05:30;100200.78;;;15.26;96.58
49813;BME280;35706;52.100;5.056;2023-10-31T13:06:31;100194.97;;;15.45;96.71
49813;BME280;35706;52.100;5.056;2023-10-31T13:07:32;100198.53;;;15.38;96.95
49813;BME280;35706;52.100;5.056;2023-10-31T13:08:34;100204.19;;;15.35;97.21
49813;BME280;35706;52.100;5.056;2023-10-31T13:09:38;100210.22;;;15.43;97.24
49813;BME280;35706;52.100;5.056;2023-10-31T13:10:39;100204.06;;;15.13;98.05
49813;BME280;35706;52.100;5.056;2023-10-31T13:11:40;100208.47;;;15.21;97.79
49813;BME280;35706;52.100;5.056;2023-10-31T13:12:43;100214.78;;;15.35;97.46
49813;BME280;35706;52.100;5.056;2023-10-31T13:13:44;100209.50;;;15.35;97.44
49813;BME280;35706;52.100;5.056;2023-10-31T13:14:44;100216.78;;;15.47;96.81
49813;BME280;35706;52.100;5.056;2023-10-31T13:15:45;100207.00;;;15.63;95.89
49813;BME280;35706;52.100;5.056;2023-10-31T13:16:47;100202.69;;;15.62;95.61
49813;BME280;35706;52.100;5.056;2023-10-31T13:17:49;100209.84;;;15.46;96.22
49813;BME280;35706;52.100;5.056;2023-10-31T13:18:50;100208.38;;;15.29;96.36
49813;BME280;35706;52.100;5.056;2023-10-31T13:19:50;100207.47;;;15.22;96.76
49813;BME280;35706;52.100;5.056;2023-10-31T13:20:50;100209.56;;;15.12;97.57
49813;BME280;35706;52.100;5.056;2023-10-31T13:21:51;100209.28;;;15.36;96.93
49813;BME280;35706;52.100;5.056;2023-10-31T13:22:51;100210.78;;;15.24;97.23
49813;BME280;35706;52.100;5.056;2023-10-31T13:23:51;100204.72;;;15.30;96.62
49813;BME280;35706;52.100;5.056;2023-10-31T13:24:52;100213.22;;;15.25;96.93
49813;BME280;35706;52.100;5.056;2023-10-31T13:25:52;100212.31;;;15.18;97.69
49813;BME280;35706;52.100;5.056;2023-10-31T13:26:52;100209.38;;;15.28;97.37
49813;BME280;35706;52.100;5.056;2023-10-31T13:27:53;100212.97;;;15.35;97.22
49813;BME280;35706;52.100;5.056;2023-10-31T13:28:54;100209.19;;;15.15;97.41
49813;BME280;35706;52.100;5.056;2023-10-31T13:29:54;100212.22;;;15.26;96.74
49813;BME280;35706;52.100;5.056;2023-10-31T13:30:54;100215.84;;;15.11;96.12
49813;BME280;35706;52.100;5.056;2023-10-31T13:31:55;100218.44;;;15.48;95.04
49813;BME280;35706;52.100;5.056;2023-10-31T13:32:55;100226.50;;;15.02;96.00
49813;BME280;35706;52.100;5.056;2023-10-31T13:33:57;100218.75;;;14.86;96.93
49813;BME280;35706;52.100;5.056;2023-10-31T13:34:57;100218.94;;;14.99;96.93
49813;BME280;35706;52.100;5.056;2023-10-31T13:35:58;100217.16;;;14.77;97.56
49813;BME280;35706;52.100;5.056;2023-10-31T13:36:59;100210.13;;;15.22;96.05
49813;BME280;35706;52.100;5.056;2023-10-31T13:37:59;100222.97;;;14.95;96.09
49813;BME280;35706;52.100;5.056;2023-10-31T13:39:00;100220.72;;;15.07;95.83
49813;BME280;35706;52.100;5.056;2023-10-31T13:40:01;100231.41;;;14.76;95.26
49813;BME280;35706;52.100;5.056;2023-10-31T13:41:02;100226.50;;;14.88;95.88
49813;BME280;35706;52.100;5.056;2023-10-31T13:42:02;100231.56;;;14.51;97.19
49813;BME280;35706;52.100;5.056;2023-10-31T13:43:03;100224.69;;;14.88;96.49
49813;BME280;35706;52.100;5.056;2023-10-31T13:44:05;100216.38;;;14.91;96.64
49813;BME280;35706;52.100;5.056;2023-10-31T13:45:05;100216.63;;;14.81;96.36
49813;BME280;35706;52.100;5.056;2023-10-31T13:46:06;100219.41;;;14.88;96.22
49813;BME280;35706;52.100;5.056;2023-10-31T13:47:06;100217.81;;;14.79;96.23
49813;BME280;35706;52.100;5.056;2023-10-31T13:48:06;100237.91;;;14.88;96.10
49813;BME280;35706;52.100;5.056;2023-10-31T13:49:07;100220.50;;;14.71;97.62
49813;BME280;35706;52.100;5.056;2023-10-31T13:50:07;100224.16;;;14.93;98.10
49813;BME280;35706;52.100;5.056;2023-10-31T13:51:08;100223.81;;;15.55;93.25
49813;BME280;35706;52.100;5.056;2023-10-31T13:52:09;100235.78;;;15.81;91.88
49813;BME280;35706;52.100;5.056;2023-10-31T13:53:10;100220.75;;;16.03;90.42
49813;BME280;35706;52.100;5.056;2023-10-31T13:54:10;100230.78;;;16.07;89.67
49813;BME280;35706;52.100;5.056;2023-10-31T13:55:10;100239.78;;;15.77;90.39
49813;BME280;35706;52.100;5.056;2023-10-31T13:56:11;100226.66;;;15.54;92.34
49813;BME280;35706;52.100;5.056;2023-10-31T13:57:11;100227.41;;;14.80;96.88
49813;BME280;35706;52.100;5.056;2023-10-31T13:58:12;100236.97;;;14.81;98.13
49813;BME280;35706;52.100;5.056;2023-10-31T13:59:12;100243.22;;;14.88;97.91
49813;BME280;35706;52.100;5.056;2023-10-31T14:00:13;100236.16;;;14.80;98.67
49813;BME280;35706;52.100;5.056;2023-10-31T14:01:13;100229.00;;;15.04;97.93
49813;BME280;35706;52.100;5.056;2023-10-31T14:02:14;100240.38;;;14.90;98.12
49813;BME280;35706;52.100;5.056;2023-10-31T14:03:14;100235.63;;;14.85;98.36
49813;BME280;35706;52.100;5.056;2023-10-31T14:04:15;100244.25;;;14.79;98.73
49813;BME280;35706;52.100;5.056;2023-10-31T14:05:16;100234.03;;;14.76;99.29
49813;BME280;35706;52.100;5.056;2023-10-31T14:06:17;100247.63;;;14.73;99.16
49813;BME280;35706;52.100;5.056;2023-10-31T14:07:21;100255.78;;;14.86;99.78
49813;BME280;35706;52.100;5.056;2023-10-31T14:08:24;100260.19;;;14.71;99.55
49813;BME280;35706;52.100;5.056;2023-10-31T14:09:25;100250.38;;;14.33;100.00
49813;BME280;35706;52.100;5.056;2023-10-31T14:10:25;100245.94;;;14.57;100.00
49813;BME280;35706;52.100;5.056;2023-10-31T14:11:26;100254.13;;;14.85;99.61
49813;BME280;35706;52.100;5.056;2023-10-31T14:12:26;100248.72;;;15.01;99.07
49813;BME280;35706;52.100;5.056;2023-10-31T14:13:28;100253.28;;;14.70;99.46
49813;BME280;35706;52.100;5.056;2023-10-31T14:14:28;100261.69;;;14.73;99.38
49813;BME280;35706;52.100;5.056;2023-10-31T14:15:29;100251.66;;;14.60;99.45
49813;BME280;35706;52.100;5.056;2023-10-31T14:16:29;100258.16;;;14.58;98.31
49813;BME280;35706;52.100;5.056;2023-10-31T14:17:32;100251.59;;;14.92;97.17
49813;BME280;35706;52.100;5.056;2023-10-31T14:18:33;100248.91;;;14.77;97.02
49813;BME280;35706;52.100;5.056;2023-10-31T14:19:33;100257.91;;;14.91;96.20
49813;BME280;35706;52.100;5.056;2023-10-31T14:20:34;100262.72;;;14.87;96.01
49813;BME280;35706;52.100;5.056;2023-10-31T14:21:34;100261.09;;;14.63;97.33
49813;BME280;35706;52.100;5.056;2023-10-31T14:22:35;100257.31;;;14.80;97.52
49813;BME280;35706;52.100;5.056;2023-10-31T14:23:35;100256.41;;;14.73;97.29
49813;BME280;35706;52.100;5.056;2023-10-31T14:24:35;100255.59;;;14.64;97.61
49813;BME280;35706;52.100;5.056;2023-10-31T14:25:36;100251.06;;;14.58;97.51
49813;BME280;35706;52.100;5.056;2023-10-31T14:26:39;100254.81;;;15.02;96.84
49813;BME280;35706;52.100;5.056;2023-10-31T14:27:41;100263.44;;;15.19;94.85
49813;BME280;35706;52.100;5.056;2023-10-31T14:28:41;100254.41;;;15.43;93.93
49813;BME280;35706;52.100;5.056;2023-10-31T14:29:43;100260.25;;;15.38;94.49
49813;BME280;35706;52.100;5.056;2023-10-31T14:30:43;100259.78;;;15.20;94.66
49813;BME280;35706;52.100;5.056;2023-10-31T14:31:44;100262.72;;;14.87;96.05
49813;BME280;35706;52.100;5.056;2023-10-31T14:32:44;100266.97;;;15.11;95.66
49813;BME280;35706;52.100;5.056;2023-10-31T14:33:45;100271.19;;;14.82;96.88
49813;BME280;35706;52.100;5.056;2023-10-31T14:34:45;100270.88;;;14.54;99.08
49813;BME280;35706;52.100;5.056;2023-10-31T14:35:47;100267.19;;;14.63;99.58
49813;BME280;35706;52.100;5.056;2023-10-31T14:36:48;100271.81;;;15.07;97.59
49813;BME280;35706;52.100;5.056;2023-10-31T14:37:48;100263.72;;;15.24;96.95
49813;BME280;35706;52.100;5.056;2023-10-31T14:38:49;100263.63;;;14.94;97.66
49813;BME280;35706;52.100;5.056;2023-10-31T14:39:49;100279.13;;;14.82;99.18
49813;BME280;35706;52.100;5.056;2023-10-31T14:40:49;100268.72;;;14.81;99.70
49813;BME280;35706;52.100;5.056;2023-10-31T14:41:49;100273.72;;;14.76;99.79
49813;BME280;35706;52.100;5.056;2023-10-31T14:42:50;100274.03;;;14.50;100.00
49813;BME280;35706;52.100;5.056;2023-10-31T14:43:50;100286.94;;;14.21;100.00
49813;BME280;35706;52.100;5.056;2023-10-31T14:44:50;100274.31;;;14.32;100.00
49813;BME280;35706;52.100;5.056;2023-10-31T14:45:52;100274.50;;;14.61;100.00
49813;BME280;35706;52.100;5.056;2023-10-31T14:46:55;100272.53;;;14.55;100.00
49813;BME280;35706;52.100;5.056;2023-10-31T14:47:55;100274.22;;;14.48;100.00
49813;BME280;35706;52.100;5.056;2023-10-31T14:48:56;100270.41;;;14.51;100.00
49813;BME280;35706;52.100;5.056;2023-10-31T14:49:56;100272.53;;;14.24;100.00
49813;BME280;35706;52.100;5.056;2023-10-31T14:50:56;100287.63;;;14.15;100.00
49813;BME280;35706;52.100;5.056;2023-10-31T14:51:57;100280.22;;;14.42;100.00
49813;BME280;35706;52.100;5.056;2023-10-31T14:52:57;100278.34;;;14.19;100.00
49813;BME280;35706;52.100;5.056;2023-10-31T14:53:58;100268.91;;;14.25;100.00
49813;BME280;35706;52.100;5.056;2023-10-31T14:54:58;100272.44;;;14.40;100.00
49813;BME280;35706;52.100;5.056;2023-10-31T14:55:59;100279.19;;;14.43;100.00
49813;BME280;35706;52.100;5.056;2023-10-31T14:56:59;100283.22;;;14.08;100.00
49813;BME280;35706;52.100;5.056;2023-10-31T14:58:01;100276.22;;;14.15;100.00
49813;BME280;35706;52.100;5.056;2023-10-31T14:59:04;100279.41;;;14.10;100.00
49813;BME280;35706;52.100;5.056;2023-10-31T15:00:06;100276.44;;;14.36;100.00
49813;BME280;35706;52.100;5.056;2023-10-31T15:01:08;100284.38;;;14.05;100.00
49813;BME280;35706;52.100;5.056;2023-10-31T15:02:09;100278.88;;;14.15;100.00
49813;BME280;35706;52.100;5.056;2023-10-31T15:03:09;100289.28;;;14.16;100.00
49813;BME280;35706;52.100;5.056;2023-10-31T15:04:09;100279.81;;;13.91;100.00
49813;BME280;35706;52.100;5.056;2023-10-31T15:05:11;100284.59;;;13.95;100.00
49813;BME280;35706;52.100;5.056;2023-10-31T15:06:11;100278.00;;;13.91;100.00
49813;BME280;35706;52.100;5.056;2023-10-31T15:07:11;100287.78;;;14.14;100.00
49813;BME280;35706;52.100;5.056;2023-10-31T15:08:12;100280.38;;;13.78;100.00
49813;BME280;35706;52.100;5.056;2023-10-31T15:09:13;100287.41;;;13.94;100.00
49813;BME280;35706;52.100;5.056;2023-10-31T15:10:13;100287.59;;;13.84;100.00
49813;BME280;35706;52.100;5.056;2023-10-31T15:11:15;100291.25;;;13.83;100.00
49813;BME280;35706;52.100;5.056;2023-10-31T15:12:18;100287.59;;;13.84;100.00
49813;BME280;35706;52.100;5.056;2023-10-31T15:13:18;100294.69;;;13.83;100.00
49813;BME280;35706;52.100;5.056;2023-10-31T15:14:18;100293.56;;;14.17;100.00
49813;BME280;35706;52.100;5.056;2023-10-31T15:15:19;100291.19;;;14.54;100.00
49813;BME280;35706;52.100;5.056;2023-10-31T15:16:19;100290.72;;;14.27;100.00
49813;BME280;35706;52.100;5.056;2023-10-31T15:17:20;100294.28;;;14.34;100.00
49813;BME280;35706;52.100;5.056;2023-10-31T15:18:20;100291.69;;;14.26;100.00
49813;BME280;35706;52.100;5.056;2023-10-31T15:19:20;100287.00;;;14.68;100.00
49813;BME280;35706;52.100;5.056;2023-10-31T15:20:20;100294.53;;;14.56;100.00
49813;BME280;35706;52.100;5.056;2023-10-31T15:21:21;100291.97;;;14.39;100.00